Terminal Aerodrome Forecast
Issued by NWS Charleston, SC

Home | Current Version | Previous Version | Text Only | Print | Product List | Glossary On
Versions: 1 2 3 4 5 6 7 8 9 10 11 12 13
000
FTUS42 KCHS 221100
TAFSAV
TAF
KSAV 221131Z 2212/2312 04008KT P6SM SKC
     FM221400 05010KT P6SM SCT020 SCT060
     FM230400 07008KT 5SM -RA BR SCT015 BKN025
     FM230700 08006KT 2SM RA BR BKN012=

USA.gov is the U.S. government's official web portal to all federal, state and local government web resources and services.